Time;durP1;ratioP1;P1;durP2;ratioP2;P2;SDS_P1;SDS_P2;PMS_P1;PMS_P2;Temp;Humidity;BMP_temperature;BMP_pressure;BME280_temperature;BME280_humidity;BME280_pressure;Samples;Min_cycle;Max_cycle;Signal;HPM_P1;HPM_P2
2023/04/24 00:01:54;;;;;;;36.95;18.33;;;;;;;;;;5113507;28;20020;-68
2023/04/24 00:04:21;;;;;;;41.97;19.10;;;;;;;;;;5112361;28;20028;-68
2023/04/24 00:06:49;;;;;;;39.35;18.15;;;;;;;;;;5113411;28;20023;-68
2023/04/24 00:09:15;;;;;;;37.17;17.60;;;;;;;;;;5098523;28;20043;-67
2023/04/24 00:11:41;;;;;;;46.90;19.88;;;;;;;;;;5092834;28;20495;-67
2023/04/24 00:14:07;;;;;;;43.13;17.90;;;;;;;;;;5092947;28;20059;-67
2023/04/24 00:16:33;;;;;;;43.83;18.35;;;;;;;;;;5092736;28;20017;-66
2023/04/24 00:19:00;;;;;;;48.65;19.42;;;;;;;;;;5092661;28;20618;-67
2023/04/24 00:21:26;;;;;;;44.92;18.95;;;;;;;;;;5092943;28;20031;-68
2023/04/24 00:23:53;;;;;;;47.30;19.50;;;;;;;;;;5092305;28;20098;-67
2023/04/24 00:26:19;;;;;;;48.55;20.30;;;;;;;;;;5092525;28;20020;-66
2023/04/24 00:28:45;;;;;;;42.42;17.92;;;;;;;;;;5092581;28;20035;-67
2023/04/24 00:31:12;;;;;;;42.13;19.00;;;;;;;;;;5092558;28;20043;-68
2023/04/24 00:33:38;;;;;;;50.08;19.05;;;;;;;;;;5092390;28;20440;-68
2023/04/24 00:36:04;;;;;;;45.78;18.58;;;;;;;;;;5092513;28;20027;-67
2023/04/24 00:38:30;;;;;;;43.60;17.77;;;;;;;;;;5092498;28;20411;-67
2023/04/24 00:40:56;;;;;;;45.03;18.90;;;;;;;;;;5091856;28;20028;-67
2023/04/24 00:43:22;;;;;;;40.85;18.27;;;;;;;;;;5092459;28;20027;-66
2023/04/24 00:45:48;;;;;;;47.35;18.83;;;;;;;;;;5090860;28;20061;-67
2023/04/24 00:48:15;;;;;;;45.55;18.52;;;;;;;;;;5092051;28;20075;-67
2023/04/24 00:50:41;;;;;;;44.38;18.77;;;;;;;;;;5092152;28;20047;-67
2023/04/24 00:53:07;;;;;;;41.60;19.10;;;;;;;;;;5092295;28;20024;-67
2023/04/24 00:55:33;;;;;;;46.22;18.70;;;;;;;;;;5092113;28;20024;-66
2023/04/24 00:57:59;;;;;;;44.58;17.83;;;;;;;;;;5090456;28;20027;-68
2023/04/24 01:00:25;;;;;;;46.80;19.20;;;;;;;;;;5091986;28;20073;-67
2023/04/24 01:02:53;;;;;;;42.85;17.95;;;;;;;;;;5091811;28;20024;-67
2023/04/24 01:05:19;;;;;;;45.03;18.70;;;;;;;;;;5091942;28;20414;-67
2023/04/24 01:07:47;;;;;;;44.88;19.10;;;;;;;;;;5091889;28;20046;-67
2023/04/24 01:10:14;;;;;;;38.28;17.15;;;;;;;;;;5090298;28;20028;-67
2023/04/24 01:12:40;;;;;;;44.83;19.38;;;;;;;;;;5091795;28;20063;-67
2023/04/24 01:15:06;;;;;;;44.75;19.90;;;;;;;;;;5091015;28;20107;-67
2023/04/24 01:17:33;;;;;;;43.85;18.70;;;;;;;;;;5090344;28;20514;-68
2023/04/24 01:20:00;;;;;;;46.35;19.95;;;;;;;;;;5091205;28;20043;-67
2023/04/24 01:22:26;;;;;;;41.33;18.45;;;;;;;;;;5091732;28;20032;-67
2023/04/24 01:24:53;;;;;;;44.58;19.65;;;;;;;;;;5091489;28;20029;-68
2023/04/24 01:27:20;;;;;;;45.97;18.10;;;;;;;;;;5091290;28;20594;-67
2023/04/24 01:29:47;;;;;;;42.08;18.38;;;;;;;;;;5091567;28;20031;-67
2023/04/24 01:32:14;;;;;;;42.75;18.17;;;;;;;;;;5090869;28;20035;-67
2023/04/24 01:34:40;;;;;;;43.55;18.70;;;;;;;;;;5091330;28;20038;-67
2023/04/24 01:37:07;;;;;;;49.22;19.67;;;;;;;;;;5091463;28;20030;-67
2023/04/24 01:39:33;;;;;;;43.25;18.20;;;;;;;;;;5091179;28;20028;-67
2023/04/24 01:42:01;;;;;;;42.85;17.80;;;;;;;;;;5091626;28;20024;-67
2023/04/24 01:44:28;;;;;;;39.05;17.90;;;;;;;;;;5091384;28;20103;-68
2023/04/24 01:46:54;;;;;;;42.55;18.50;;;;;;;;;;5090991;28;20044;-67
2023/04/24 01:49:21;;;;;;;42.33;19.08;;;;;;;;;;5090715;28;20031;-67
2023/04/24 01:51:47;;;;;;;41.40;18.75;;;;;;;;;;5091345;28;20021;-67
2023/04/24 01:54:13;;;;;;;37.60;17.42;;;;;;;;;;5091347;28;20082;-67
2023/04/24 01:56:43;;;;;;;50.25;19.88;;;;;;;;;;5091332;28;20077;-67
2023/04/24 01:59:12;;;;;;;45.05;18.23;;;;;;;;;;5091096;28;20063;-67
2023/04/24 02:01:39;;;;;;;41.08;18.55;;;;;;;;;;5091287;28;20012;-67
2023/04/24 02:04:06;;;;;;;39.83;17.88;;;;;;;;;;5091265;28;20028;-67
2023/04/24 02:06:32;;;;;;;43.45;19.88;;;;;;;;;;5090554;28;20027;-67
2023/04/24 02:08:59;;;;;;;44.15;17.65;;;;;;;;;;5091265;28;20021;-67
2023/04/24 02:11:25;;;;;;;45.58;18.42;;;;;;;;;;5090826;28;20099;-67
2023/04/24 02:13:51;;;;;;;39.63;17.50;;;;;;;;;;5091033;28;20027;-67
2023/04/24 02:16:17;;;;;;;36.28;17.38;;;;;;;;;;5091157;28;20023;-66
2023/04/24 02:18:43;;;;;;;43.92;17.92;;;;;;;;;;5091124;28;20103;-67
2023/04/24 02:21:10;;;;;;;42.90;18.63;;;;;;;;;;5090470;28;20036;-67
2023/04/24 02:23:36;;;;;;;39.00;18.25;;;;;;;;;;5090678;28;20024;-67
2023/04/24 02:26:02;;;;;;;44.28;19.45;;;;;;;;;;5090997;28;20528;-68
2023/04/24 02:28:28;;;;;;;40.97;18.70;;;;;;;;;;5090896;28;20067;-66
2023/04/24 02:30:54;;;;;;;47.10;18.70;;;;;;;;;;5090913;28;20082;-67
2023/04/24 02:33:20;;;;;;;44.65;18.40;;;;;;;;;;5094455;28;20044;-67
2023/04/24 02:35:46;;;;;;;40.38;17.65;;;;;;;;;;5094504;28;20058;-67
2023/04/24 02:38:12;;;;;;;41.75;18.52;;;;;;;;;;5094835;28;20077;-67
2023/04/24 02:40:38;;;;;;;39.17;16.90;;;;;;;;;;5094699;28;20031;-68
2023/04/24 02:43:04;;;;;;;43.17;18.63;;;;;;;;;;5094870;28;20091;-67
2023/04/24 02:45:31;;;;;;;41.08;17.27;;;;;;;;;;5093800;28;20024;-68
2023/04/24 02:47:57;;;;;;;40.83;18.17;;;;;;;;;;5094307;28;20040;-67
2023/04/24 02:50:23;;;;;;;41.13;16.88;;;;;;;;;;5094671;28;20020;-66
2023/04/24 02:52:49;;;;;;;41.33;17.95;;;;;;;;;;5093948;28;20078;-66
2023/04/24 02:55:15;;;;;;;34.80;16.65;;;;;;;;;;5094359;28;20471;-66
2023/04/24 02:57:41;;;;;;;38.15;17.67;;;;;;;;;;5094546;28;20052;-67
2023/04/24 03:00:07;;;;;;;38.88;16.95;;;;;;;;;;5094240;28;20099;-66
2023/04/24 03:02:33;;;;;;;42.67;18.95;;;;;;;;;;5094340;28;20103;-67
2023/04/24 03:04:59;;;;;;;39.72;17.80;;;;;;;;;;5094271;28;20035;-68
2023/04/24 03:07:26;;;;;;;44.58;18.80;;;;;;;;;;5094182;28;20032;-67
2023/04/24 03:09:52;;;;;;;37.42;16.73;;;;;;;;;;5093996;28;20392;-69
2023/04/24 03:12:18;;;;;;;40.47;17.73;;;;;;;;;;5111094;28;20474;-67
2023/04/24 03:14:44;;;;;;;38.38;18.05;;;;;;;;;;5114286;28;20116;-68
2023/04/24 03:17:10;;;;;;;42.65;19.23;;;;;;;;;;5114540;28;20120;-67
2023/04/24 03:19:36;;;;;;;40.05;19.08;;;;;;;;;;5114452;28;20032;-67
2023/04/24 03:22:03;;;;;;;40.78;18.80;;;;;;;;;;5114294;28;20479;-69
2023/04/24 03:24:30;;;;;;;39.60;18.05;;;;;;;;;;5114281;28;20027;-67
2023/04/24 03:26:56;;;;;;;41.00;17.45;;;;;;;;;;5114389;28;20023;-68
2023/04/24 03:29:22;;;;;;;42.22;18.98;;;;;;;;;;5097355;28;20035;-67
2023/04/24 03:31:48;;;;;;;41.17;18.85;;;;;;;;;;5094225;28;20022;-67
2023/04/24 03:34:14;;;;;;;42.63;19.27;;;;;;;;;;5093874;28;20052;-66
2023/04/24 03:36:41;;;;;;;43.63;17.85;;;;;;;;;;5093438;28;20028;-68
2023/04/24 03:39:07;;;;;;;38.35;18.73;;;;;;;;;;5093583;28;20419;-67
2023/04/24 03:41:33;;;;;;;39.95;18.45;;;;;;;;;;5093838;28;20035;-67
2023/04/24 03:43:59;;;;;;;40.72;18.55;;;;;;;;;;5093134;28;20046;-67
2023/04/24 03:46:26;;;;;;;44.90;18.73;;;;;;;;;;5092752;28;20125;-66
2023/04/24 03:48:52;;;;;;;40.25;17.75;;;;;;;;;;5093222;28;20100;-69
2023/04/24 03:51:18;;;;;;;40.35;18.00;;;;;;;;;;5093448;28;20138;-67
2023/04/24 03:53:44;;;;;;;35.58;18.25;;;;;;;;;;5093043;28;20380;-67
2023/04/24 03:56:10;;;;;;;36.47;18.02;;;;;;;;;;5093372;28;20016;-67
2023/04/24 03:58:36;;;;;;;40.83;19.30;;;;;;;;;;5093252;28;20020;-68
2023/04/24 04:01:02;;;;;;;38.83;17.65;;;;;;;;;;5092490;28;20035;-68
2023/04/24 04:03:28;;;;;;;43.13;20.30;;;;;;;;;;5093325;28;20027;-67
2023/04/24 04:05:54;;;;;;;42.60;17.95;;;;;;;;;;5092825;28;20504;-67
2023/04/24 04:08:20;;;;;;;43.65;18.83;;;;;;;;;;5092886;28;20036;-67
2023/04/24 04:10:46;;;;;;;39.67;17.63;;;;;;;;;;5093021;28;20024;-67
2023/04/24 04:13:12;;;;;;;39.30;17.63;;;;;;;;;;5091551;28;20024;-67
2023/04/24 04:15:38;;;;;;;39.00;19.05;;;;;;;;;;5091654;28;20107;-68
2023/04/24 04:18:05;;;;;;;38.47;17.23;;;;;;;;;;5092035;28;20561;-67
2023/04/24 04:20:31;;;;;;;39.72;18.50;;;;;;;;;;5092725;28;20027;-67
2023/04/24 04:22:57;;;;;;;43.47;18.55;;;;;;;;;;5091493;28;20111;-68
2023/04/24 04:25:23;;;;;;;41.00;18.15;;;;;;;;;;5092875;28;20028;-67
2023/04/24 04:27:50;;;;;;;38.45;19.08;;;;;;;;;;5092480;28;20031;-67
2023/04/24 04:30:17;;;;;;;42.65;19.45;;;;;;;;;;5092565;28;20028;-67
2023/04/24 04:32:44;;;;;;;44.10;18.17;;;;;;;;;;5092046;28;20019;-67
2023/04/24 04:35:10;;;;;;;40.35;18.25;;;;;;;;;;5112936;28;20020;-67
2023/04/24 04:37:36;;;;;;;42.03;18.25;;;;;;;;;;5112806;28;20185;-66
2023/04/24 04:40:06;;;;;;;39.50;18.05;;;;;;;;;;5112759;28;20019;-67
2023/04/24 04:42:32;;;;;;;38.38;17.52;;;;;;;;;;5112848;28;20023;-67
2023/04/24 04:44:58;;;;;;;40.80;17.73;;;;;;;;;;5112565;28;20024;-67
2023/04/24 04:47:24;;;;;;;37.47;17.95;;;;;;;;;;5112367;28;20043;-67
2023/04/24 04:49:51;;;;;;;40.22;18.67;;;;;;;;;;5109587;28;20114;-66
2023/04/24 04:52:18;;;;;;;36.22;18.02;;;;;;;;;;5111938;28;20135;-66
2023/04/24 04:54:44;;;;;;;38.90;19.45;;;;;;;;;;5111644;28;20019;-65
2023/04/24 04:57:11;;;;;;;37.38;17.60;;;;;;;;;;5112345;28;20016;-67
2023/04/24 04:59:38;;;;;;;35.15;17.95;;;;;;;;;;5112188;28;20456;-67
2023/04/24 05:02:04;;;;;;;41.88;18.15;;;;;;;;;;5112449;28;20024;-68
2023/04/24 05:04:30;;;;;;;35.33;18.23;;;;;;;;;;5112192;28;20034;-67
2023/04/24 05:06:56;;;;;;;38.30;17.48;;;;;;;;;;5111692;28;20019;-66
2023/04/24 05:09:22;;;;;;;35.95;17.52;;;;;;;;;;5091755;28;20055;-66
2023/04/24 05:11:48;;;;;;;36.25;18.65;;;;;;;;;;5091867;28;20095;-66
2023/04/24 05:14:14;;;;;;;36.15;17.52;;;;;;;;;;5091840;28;20023;-67
2023/04/24 05:16:40;;;;;;;37.25;16.77;;;;;;;;;;5097122;28;20028;-66
2023/04/24 05:19:07;;;;;;;32.40;17.00;;;;;;;;;;5110775;28;20035;-65
2023/04/24 05:21:33;;;;;;;36.40;17.40;;;;;;;;;;5112159;28;20038;-67
2023/04/24 05:24:05;;;;;;;37.92;17.67;;;;;;;;;;5111978;28;20066;-68
2023/04/24 05:26:32;;;;;;;38.95;18.42;;;;;;;;;;5111807;28;20053;-66
2023/04/24 05:28:58;;;;;;;39.58;17.55;;;;;;;;;;5097416;28;20051;-67
2023/04/24 05:31:25;;;;;;;34.63;17.77;;;;;;;;;;5090958;28;20111;-67
2023/04/24 05:33:51;;;;;;;34.42;16.98;;;;;;;;;;5095963;28;20373;-68
2023/04/24 05:36:17;;;;;;;39.30;17.98;;;;;;;;;;5091569;28;20482;-67
2023/04/24 05:38:43;;;;;;;34.83;17.48;;;;;;;;;;5091571;28;20454;-67
2023/04/24 05:41:09;;;;;;;36.88;16.52;;;;;;;;;;5091575;28;20372;-69
2023/04/24 05:43:35;;;;;;;37.38;17.55;;;;;;;;;;5092945;28;20050;-67
2023/04/24 05:46:01;;;;;;;31.25;16.00;;;;;;;;;;5089579;28;20020;-68
2023/04/24 05:48:27;;;;;;;29.15;15.93;;;;;;;;;;5099783;28;20035;-66
2023/04/24 05:50:53;;;;;;;32.97;16.30;;;;;;;;;;5102907;28;20041;-68
2023/04/24 05:53:19;;;;;;;35.97;16.73;;;;;;;;;;5111387;28;20049;-68
2023/04/24 05:55:45;;;;;;;35.05;17.25;;;;;;;;;;5111246;28;20027;-68
2023/04/24 05:58:12;;;;;;;33.58;16.23;;;;;;;;;;5111641;28;20023;-68
2023/04/24 06:00:42;;;;;;;32.85;16.20;;;;;;;;;;5102325;28;20032;-71
2023/04/24 06:03:08;;;;;;;31.83;15.40;;;;;;;;;;5098905;28;20028;-68
2023/04/24 06:05:34;;;;;;;33.58;16.63;;;;;;;;;;5111774;28;20035;-68
2023/04/24 06:08:00;;;;;;;35.42;15.82;;;;;;;;;;5101978;28;20090;-69
2023/04/24 06:10:27;;;;;;;30.50;16.50;;;;;;;;;;5096310;28;20040;-68
2023/04/24 06:12:56;;;;;;;31.90;16.15;;;;;;;;;;5095178;28;20035;-67
2023/04/24 06:15:22;;;;;;;29.85;15.82;;;;;;;;;;5096367;28;20103;-69
2023/04/24 06:17:48;;;;;;;32.72;15.65;;;;;;;;;;5109805;28;20031;-68
2023/04/24 06:20:14;;;;;;;33.63;16.13;;;;;;;;;;5095076;28;20081;-67
2023/04/24 06:22:40;;;;;;;29.20;15.35;;;;;;;;;;5094824;28;20024;-70
2023/04/24 06:25:07;;;;;;;33.88;16.05;;;;;;;;;;5094714;28;20028;-67
2023/04/24 06:27:33;;;;;;;31.27;16.08;;;;;;;;;;5094754;28;20028;-67
2023/04/24 06:29:59;;;;;;;31.25;16.35;;;;;;;;;;5094886;28;20032;-67
2023/04/24 06:32:25;;;;;;;31.85;15.30;;;;;;;;;;5096036;28;20107;-66
2023/04/24 06:34:52;;;;;;;35.05;16.20;;;;;;;;;;5101552;28;20538;-67
2023/04/24 06:37:19;;;;;;;33.78;16.77;;;;;;;;;;5115407;28;20054;-67
2023/04/24 06:39:45;;;;;;;35.10;16.60;;;;;;;;;;5115199;28;20069;-67
2023/04/24 06:42:11;;;;;;;28.20;15.90;;;;;;;;;;5099415;28;20032;-68
2023/04/24 06:44:40;;;;;;;28.33;14.88;;;;;;;;;;5093616;28;20026;-69
2023/04/24 06:47:09;;;;;;;28.08;14.57;;;;;;;;;;5094451;28;20068;-69
2023/04/24 06:49:36;;;;;;;30.35;14.90;;;;;;;;;;5097870;28;20020;-68
2023/04/24 06:52:02;;;;;;;28.20;14.70;;;;;;;;;;5109366;28;20073;-68
2023/04/24 06:54:29;;;;;;;27.95;14.55;;;;;;;;;;5114967;28;20016;-67
2023/04/24 06:56:55;;;;;;;24.85;14.15;;;;;;;;;;5113867;28;20031;-68
2023/04/24 06:59:21;;;;;;;26.52;14.20;;;;;;;;;;5115184;28;20103;-68
2023/04/24 07:01:47;;;;;;;29.08;14.95;;;;;;;;;;5100359;28;20078;-68
2023/04/24 07:04:13;;;;;;;27.15;14.02;;;;;;;;;;5096036;28;20028;-68
2023/04/24 07:06:39;;;;;;;29.25;14.55;;;;;;;;;;5094172;28;20472;-67
2023/04/24 07:09:05;;;;;;;25.67;14.25;;;;;;;;;;5093865;28;20036;-69
2023/04/24 07:11:32;;;;;;;23.08;13.82;;;;;;;;;;5108131;28;20547;-67
2023/04/24 07:13:58;;;;;;;27.60;13.93;;;;;;;;;;5103769;28;20036;-69
2023/04/24 07:16:25;;;;;;;28.58;13.40;;;;;;;;;;5114432;28;20118;-68
2023/04/24 07:18:51;;;;;;;22.73;13.05;;;;;;;;;;5113391;28;20016;-68
2023/04/24 07:21:17;;;;;;;24.63;13.43;;;;;;;;;;5114373;28;20035;-68
2023/04/24 07:23:43;;;;;;;25.27;14.13;;;;;;;;;;5114204;28;20027;-67
2023/04/24 07:26:09;;;;;;;25.63;13.40;;;;;;;;;;5114333;28;20197;-68
2023/04/24 07:28:36;;;;;;;26.13;13.15;;;;;;;;;;5114326;28;20031;-68
2023/04/24 07:31:02;;;;;;;23.38;13.77;;;;;;;;;;5112806;28;20498;-67
2023/04/24 07:33:28;;;;;;;23.88;12.85;;;;;;;;;;5113984;28;20468;-68
2023/04/24 07:35:54;;;;;;;23.90;12.73;;;;;;;;;;5114059;28;20490;-68
2023/04/24 07:38:21;;;;;;;21.45;12.38;;;;;;;;;;5114522;28;20030;-66
2023/04/24 07:40:48;;;;;;;22.95;12.68;;;;;;;;;;5112664;28;20026;-68
2023/04/24 07:43:14;;;;;;;20.92;12.70;;;;;;;;;;5114090;28;20413;-67
2023/04/24 07:45:40;;;;;;;21.60;12.30;;;;;;;;;;5112598;28;20050;-67
2023/04/24 07:48:08;;;;;;;24.92;12.60;;;;;;;;;;5113484;28;20465;-67
2023/04/24 07:50:35;;;;;;;28.40;13.85;;;;;;;;;;5113922;28;20036;-67
2023/04/24 07:53:01;;;;;;;26.15;12.35;;;;;;;;;;5113780;28;20089;-68
2023/04/24 07:55:28;;;;;;;24.48;12.50;;;;;;;;;;5113571;28;20016;-67
2023/04/24 07:57:54;;;;;;;19.70;12.30;;;;;;;;;;5113433;28;20040;-68
2023/04/24 08:00:20;;;;;;;20.50;12.45;;;;;;;;;;5113703;28;20047;-67
2023/04/24 08:02:46;;;;;;;23.35;12.85;;;;;;;;;;5099574;28;20119;-68
2023/04/24 08:05:12;;;;;;;22.67;12.70;;;;;;;;;;5092937;28;20059;-67
2023/04/24 08:07:39;;;;;;;22.10;13.40;;;;;;;;;;5092921;28;20031;-67
2023/04/24 08:10:05;;;;;;;22.40;12.68;;;;;;;;;;5092779;28;20013;-67
2023/04/24 08:12:31;;;;;;;23.80;13.13;;;;;;;;;;5093059;28;20052;-67
2023/04/24 08:14:57;;;;;;;23.23;12.20;;;;;;;;;;5092876;28;20020;-67
2023/04/24 08:17:25;;;;;;;20.95;12.88;;;;;;;;;;5099206;28;20023;-69
2023/04/24 08:19:53;;;;;;;20.13;12.30;;;;;;;;;;5112926;28;20495;-68
2023/04/24 08:22:19;;;;;;;21.90;12.25;;;;;;;;;;5112952;28;20020;-67
2023/04/24 08:24:45;;;;;;;18.25;11.57;;;;;;;;;;5113282;28;20070;-67
2023/04/24 08:27:11;;;;;;;23.75;13.90;;;;;;;;;;5108633;28;20035;-67
2023/04/24 08:29:37;;;;;;;22.02;12.20;;;;;;;;;;5091540;28;20035;-68
2023/04/24 08:32:03;;;;;;;20.45;11.75;;;;;;;;;;5091336;28;20016;-67
2023/04/24 08:34:29;;;;;;;20.75;11.77;;;;;;;;;;5092366;28;20026;-68
2023/04/24 08:36:55;;;;;;;19.80;10.85;;;;;;;;;;5092476;28;20103;-66
2023/04/24 08:39:21;;;;;;;18.48;11.07;;;;;;;;;;5092477;28;20077;-67
2023/04/24 08:41:49;;;;;;;21.17;13.30;;;;;;;;;;5092482;28;20024;-66
2023/04/24 08:44:15;;;;;;;19.83;11.95;;;;;;;;;;5091559;28;20384;-68
2023/04/24 08:46:45;;;;;;;19.30;11.32;;;;;;;;;;5091978;28;20090;-67
2023/04/24 08:49:11;;;;;;;21.77;11.82;;;;;;;;;;5092237;28;20046;-67
2023/04/24 08:51:38;;;;;;;19.20;10.98;;;;;;;;;;5092123;28;20028;-65
2023/04/24 08:54:05;;;;;;;22.35;11.40;;;;;;;;;;5092056;28;20035;-66
2023/04/24 08:56:33;;;;;;;18.33;12.38;;;;;;;;;;5091933;28;20389;-66
2023/04/24 08:58:59;;;;;;;24.67;13.70;;;;;;;;;;5091998;28;20437;-66
2023/04/24 09:01:26;;;;;;;18.75;12.82;;;;;;;;;;5105015;28;20031;-67
2023/04/24 09:03:52;;;;;;;24.48;13.52;;;;;;;;;;5112277;28;20023;-67
2023/04/24 09:06:18;;;;;;;26.33;14.98;;;;;;;;;;5112209;28;20036;-66
2023/04/24 09:08:45;;;;;;;20.83;12.68;;;;;;;;;;5112343;28;20042;-66
2023/04/24 09:11:12;;;;;;;20.63;12.82;;;;;;;;;;5112062;28;20019;-66
2023/04/24 09:13:38;;;;;;;17.90;11.70;;;;;;;;;;5112174;28;20019;-66
2023/04/24 09:16:04;;;;;;;21.58;12.48;;;;;;;;;;5112071;28;20041;-65
2023/04/24 09:18:30;;;;;;;19.02;12.13;;;;;;;;;;5110828;28;20028;-66
2023/04/24 09:21:01;;;;;;;18.20;11.60;;;;;;;;;;5111859;28;20020;-66
2023/04/24 09:23:28;;;;;;;22.15;11.82;;;;;;;;;;5112166;28;20023;-67
2023/04/24 09:25:58;;;;;;;23.02;13.10;;;;;;;;;;5112237;28;20115;-66
2023/04/24 09:28:31;;;;;;;20.80;12.10;;;;;;;;;;5110494;28;20073;-66
2023/04/24 09:31:24;;;;;;;24.10;13.68;;;;;;;;;;5111760;28;20032;-66
2023/04/24 09:34:16;;;;;;;19.92;12.15;;;;;;;;;;5098247;28;20555;-66
2023/04/24 09:36:44;;;;;;;20.65;12.20;;;;;;;;;;5089292;28;20473;-65
2023/04/24 09:39:11;;;;;;;20.05;11.23;;;;;;;;;;5091366;28;20016;-65
2023/04/24 09:41:45;;;;;;;18.15;11.50;;;;;;;;;;5089588;28;20118;-65
2023/04/24 09:44:19;;;;;;;16.27;11.05;;;;;;;;;;5091324;28;20024;-66
2023/04/24 09:46:46;;;;;;;20.08;11.25;;;;;;;;;;5091338;28;20164;-65
2023/04/24 09:49:16;;;;;;;18.98;11.65;;;;;;;;;;5091129;28;20035;-65
2023/04/24 09:51:42;;;;;;;19.13;11.35;;;;;;;;;;5090484;28;20024;-64
2023/04/24 09:54:20;;;;;;;16.02;10.60;;;;;;;;;;5091243;28;20032;-66
2023/04/24 09:56:47;;;;;;;15.15;10.32;;;;;;;;;;5091439;28;20013;-65
2023/04/24 09:59:14;;;;;;;18.95;10.77;;;;;;;;;;5091278;28;20028;-65
2023/04/24 10:01:44;;;;;;;17.70;10.75;;;;;;;;;;5091620;28;20020;-65
2023/04/24 10:04:24;;;;;;;17.02;11.05;;;;;;;;;;5091089;28;20020;-64
2023/04/24 10:06:51;;;;;;;18.48;11.35;;;;;;;;;;5098983;28;20106;-65
2023/04/24 10:09:17;;;;;;;16.02;10.20;;;;;;;;;;5111317;28;20080;-65
2023/04/24 10:11:47;;;;;;;16.00;10.38;;;;;;;;;;5111610;28;20023;-66
2023/04/24 10:14:20;;;;;;;20.48;11.50;;;;;;;;;;5111425;28;20034;-66
2023/04/24 10:16:46;;;;;;;18.00;10.68;;;;;;;;;;5111472;28;20023;-68
2023/04/24 10:19:13;;;;;;;16.02;9.73;;;;;;;;;;5111146;28;20440;-65
2023/04/24 10:21:42;;;;;;;16.17;10.15;;;;;;;;;;5111427;28;20023;-66
2023/04/24 10:24:08;;;;;;;17.02;9.55;;;;;;;;;;5096453;28;20134;-66
2023/04/24 10:26:35;;;;;;;18.75;10.27;;;;;;;;;;5091178;28;20453;-66
2023/04/24 10:29:02;;;;;;;16.67;9.48;;;;;;;;;;5090907;28;20111;-65
2023/04/24 10:31:31;;;;;;;21.45;9.98;;;;;;;;;;5090802;28;20016;-65
2023/04/24 10:33:58;;;;;;;17.23;9.85;;;;;;;;;;5091040;28;20036;-65
2023/04/24 10:36:26;;;;;;;15.52;10.02;;;;;;;;;;5090736;28;20032;-64
2023/04/24 10:38:53;;;;;;;18.60;9.10;;;;;;;;;;5090890;28;20028;-66
2023/04/24 10:41:22;;;;;;;19.25;10.05;;;;;;;;;;5099722;28;20190;-65
2023/04/24 10:43:50;;;;;;;17.15;10.50;;;;;;;;;;5111172;28;20100;-65
2023/04/24 10:46:21;;;;;;;14.95;9.57;;;;;;;;;;5111327;28;20024;-65
2023/04/24 10:48:55;;;;;;;17.45;10.23;;;;;;;;;;5110816;28;20494;-66
2023/04/24 10:51:22;;;;;;;14.93;9.23;;;;;;;;;;5111155;28;20024;-66
2023/04/24 10:53:49;;;;;;;15.90;9.75;;;;;;;;;;5113536;28;20207;-66
2023/04/24 10:56:16;;;;;;;15.13;9.38;;;;;;;;;;5114793;28;20020;-65
2023/04/24 10:58:53;;;;;;;14.45;9.35;;;;;;;;;;5100765;28;20023;-66
2023/04/24 11:01:30;;;;;;;14.82;8.82;;;;;;;;;;5094396;28;20020;-65
2023/04/24 11:03:57;;;;;;;17.60;10.40;;;;;;;;;;5094401;28;20464;-67
2023/04/24 11:06:34;;;;;;;16.35;9.57;;;;;;;;;;5094048;28;20099;-65
2023/04/24 11:09:05;;;;;;;14.32;9.43;;;;;;;;;;5094449;28;20224;-65
2023/04/24 11:11:31;;;;;;;15.68;9.60;;;;;;;;;;5093972;28;20016;-65
2023/04/24 11:13:57;;;;;;;17.40;9.65;;;;;;;;;;5092804;28;20115;-64
2023/04/24 11:16:23;;;;;;;14.57;9.65;;;;;;;;;;5094198;28;20250;-65
2023/04/24 11:18:54;;;;;;;14.55;8.50;;;;;;;;;;5092538;28;20092;-65
2023/04/24 11:21:21;;;;;;;16.40;8.52;;;;;;;;;;5093838;28;20028;-64
2023/04/24 11:23:47;;;;;;;18.85;7.93;;;;;;;;;;5093963;28;20029;-66
2023/04/24 11:26:13;;;;;;;13.50;7.53;;;;;;;;;;5093957;28;20128;-66
2023/04/24 11:28:49;;;;;;;11.68;7.13;;;;;;;;;;5093758;28;20040;-65
2023/04/24 11:31:33;;;;;;;13.10;7.50;;;;;;;;;;5093170;28;20031;-64
2023/04/24 11:34:06;;;;;;;12.60;7.40;;;;;;;;;;5093629;28;20579;-66
2023/04/24 11:36:32;;;;;;;12.95;7.55;;;;;;;;;;5093512;28;20093;-65
2023/04/24 11:38:58;;;;;;;11.52;7.20;;;;;;;;;;5093529;28;20035;-64
2023/04/24 11:41:25;;;;;;;12.52;6.80;;;;;;;;;;5093724;28;20040;-65
2023/04/24 11:43:52;;;;;;;10.68;7.68;;;;;;;;;;5099340;28;20526;-65
2023/04/24 11:46:18;;;;;;;13.60;7.40;;;;;;;;;;5113511;28;20078;-65
2023/04/24 11:48:47;;;;;;;15.35;7.72;;;;;;;;;;5113601;28;20042;-65
2023/04/24 11:51:14;;;;;;;14.88;7.15;;;;;;;;;;5113752;28;20016;-65
2023/04/24 11:53:40;;;;;;;10.70;6.88;;;;;;;;;;5113905;28;20032;-64
2023/04/24 11:56:06;;;;;;;14.95;7.72;;;;;;;;;;5113675;28;20108;-65
2023/04/24 11:58:35;;;;;;;9.25;5.75;;;;;;;;;;5113486;28;20020;-64
2023/04/24 12:01:02;;;;;;;7.40;4.95;;;;;;;;;;5112300;28;20020;-65
2023/04/24 12:03:28;;;;;;;7.20;5.32;;;;;;;;;;5113154;28;20030;-65
2023/04/24 12:06:05;;;;;;;9.27;6.50;;;;;;;;;;5113435;28;20030;-66
2023/04/24 12:08:32;;;;;;;8.50;6.18;;;;;;;;;;5111967;28;20118;-65
2023/04/24 12:10:59;;;;;;;8.95;6.38;;;;;;;;;;5113245;28;20377;-64
2023/04/24 12:13:26;;;;;;;7.47;5.82;;;;;;;;;;5113403;28;20026;-65
2023/04/24 12:15:52;;;;;;;8.73;5.63;;;;;;;;;;5113049;28;20464;-65
2023/04/24 12:18:18;;;;;;;10.30;6.13;;;;;;;;;;5113056;28;20024;-65
2023/04/24 12:20:44;;;;;;;11.25;5.65;;;;;;;;;;5091406;28;20384;-65
2023/04/24 12:23:10;;;;;;;9.13;6.10;;;;;;;;;;5092693;28;20024;-65
2023/04/24 12:25:36;;;;;;;13.20;6.03;;;;;;;;;;5092722;28;20016;-65
2023/04/24 12:28:05;;;;;;;8.73;5.75;;;;;;;;;;5091247;28;20123;-65
2023/04/24 12:30:33;;;;;;;8.23;6.30;;;;;;;;;;5092500;28;20024;-64
2023/04/24 12:33:00;;;;;;;9.75;6.38;;;;;;;;;;5092687;28;20031;-65
2023/04/24 12:35:27;;;;;;;13.57;6.88;;;;;;;;;;5091840;28;20419;-65
2023/04/24 12:37:54;;;;;;;12.55;6.50;;;;;;;;;;5092430;28;20027;-64
2023/04/24 12:40:21;;;;;;;10.32;5.90;;;;;;;;;;5092931;28;20508;-65
2023/04/24 12:42:50;;;;;;;14.48;7.30;;;;;;;;;;5092676;28;20059;-65
2023/04/24 12:45:17;;;;;;;10.93;6.00;;;;;;;;;;5092235;28;20031;-65
2023/04/24 12:47:44;;;;;;;12.32;6.28;;;;;;;;;;5092038;28;20048;-64
2023/04/24 12:50:11;;;;;;;9.77;6.32;;;;;;;;;;5092045;28;20020;-64
2023/04/24 12:52:37;;;;;;;6.57;5.38;;;;;;;;;;5091686;28;20127;-64
2023/04/24 12:55:06;;;;;;;12.63;6.03;;;;;;;;;;5090894;28;20115;-65
2023/04/24 12:57:32;;;;;;;6.82;4.80;;;;;;;;;;5091905;28;20441;-64
2023/04/24 12:59:59;;;;;;;7.72;4.78;;;;;;;;;;5091906;28;20020;-65
2023/04/24 13:02:26;;;;;;;7.65;3.63;;;;;;;;;;5092109;28;20028;-65
2023/04/24 13:04:52;;;;;;;8.23;4.07;;;;;;;;;;5092011;28;20488;-64
2023/04/24 13:07:18;;;;;;;9.25;3.97;;;;;;;;;;5091644;28;20035;-64
2023/04/24 13:09:44;;;;;;;10.07;4.05;;;;;;;;;;5091050;28;20423;-65
2023/04/24 13:12:11;;;;;;;6.28;3.72;;;;;;;;;;5091915;28;20179;-65
2023/04/24 13:14:38;;;;;;;4.20;3.63;;;;;;;;;;5092038;28;20024;-65
2023/04/24 13:17:04;;;;;;;7.53;3.75;;;;;;;;;;5090957;28;20074;-65
2023/04/24 13:19:35;;;;;;;6.28;3.60;;;;;;;;;;5091637;28;20082;-64
2023/04/24 13:22:01;;;;;;;8.37;4.07;;;;;;;;;;5091812;28;20031;-65
2023/04/24 13:24:27;;;;;;;7.18;4.28;;;;;;;;;;5091530;28;20049;-64
2023/04/24 13:26:54;;;;;;;9.18;4.43;;;;;;;;;;5099665;28;20055;-64
2023/04/24 13:29:20;;;;;;;6.78;4.05;;;;;;;;;;5111832;28;20032;-68
2023/04/24 13:31:47;;;;;;;9.73;4.00;;;;;;;;;;5111884;28;20592;-65
2023/04/24 13:34:14;;;;;;;8.85;3.53;;;;;;;;;;5112007;28;20078;-64
2023/04/24 13:36:40;;;;;;;10.18;4.70;;;;;;;;;;5111679;28;20024;-64
2023/04/24 13:39:06;;;;;;;7.50;3.80;;;;;;;;;;5111631;28;20023;-64
2023/04/24 13:41:36;;;;;;;6.35;3.78;;;;;;;;;;5111870;28;20024;-64
2023/04/24 13:44:02;;;;;;;10.13;4.60;;;;;;;;;;5103906;28;20057;-65
2023/04/24 13:46:28;;;;;;;7.80;4.60;;;;;;;;;;5091175;28;20036;-64
2023/04/24 13:48:54;;;;;;;6.00;4.68;;;;;;;;;;5091146;28;20043;-63
2023/04/24 13:51:20;;;;;;;8.15;5.05;;;;;;;;;;5091252;28;20017;-64
2023/04/24 13:53:46;;;;;;;8.50;4.55;;;;;;;;;;5091187;28;20496;-64
2023/04/24 13:56:13;;;;;;;7.80;4.25;;;;;;;;;;5089887;28;20473;-65
2023/04/24 13:58:40;;;;;;;8.63;4.88;;;;;;;;;;5091670;28;20055;-64
2023/04/24 14:01:06;;;;;;;13.00;4.00;;;;;;;;;;5097062;28;20028;-63
2023/04/24 14:03:33;;;;;;;5.80;3.50;;;;;;;;;;5111550;28;20016;-65
2023/04/24 14:05:59;;;;;;;6.07;3.63;;;;;;;;;;5111979;28;20028;-64
2023/04/24 14:08:25;;;;;;;8.13;3.25;;;;;;;;;;5111383;28;20072;-64
2023/04/24 14:10:51;;;;;;;8.48;3.35;;;;;;;;;;5111547;28;20023;-65
2023/04/24 14:13:18;;;;;;;6.18;3.20;;;;;;;;;;5111522;28;20028;-65
2023/04/24 14:15:44;;;;;;;8.45;3.05;;;;;;;;;;5111149;28;20383;-64
2023/04/24 14:18:10;;;;;;;7.05;3.03;;;;;;;;;;5108217;28;20226;-64
2023/04/24 14:20:36;;;;;;;9.68;4.07;;;;;;;;;;5090833;28;20535;-63